Forside
METAR-TAF:

METAR-TAF

Lufthavne :

Zahedan, Iran

Breddekreds: 29-28N, længdekreds: 060-53E, højde: 1370 m

Aktuelle vejr

Denne rapport blev lavet for 12 minutter siden, kl. 07:30 UTC
Vind 4 kt fra øst
Temperatur 17°C
Fugtighed 27%
Tryk 1018 hPa
Sigt 10 km eller mere
ingen skyer under 1500m og ingen cumulonimbus

METAR: OIZH 290730Z 10004KT CAVOK 17/M02 Q1018 A3006

Tid: 11:12 (07:42 UTC)

Vejrudsigter

Denne rapport blev lavet for 2 timer og 12 minutter siden, kl. 05:30 UTC
Foreløbig gælder fra 29 på 06 UTC til 01 på 12 UTC
Vind 8 kt fra vestsydvest
Sigt: 7000 m

TAF: OIZH 290530Z 2906/0112 24008KT 7000 NSC

Vejrobservationer og prognoser fra mere end 4000 lufthavne (METAR og TAF).

De gule og røde prikker repræsenterer de meteorologiske stationer.

Flyt musen over at se navnet på stationen.

Så klik over at se vejr observationer og prognoser.

At skifte det kort: Klik på de grønne knapper med et sort kors for at zoome ind; på den grønne knap med en bindestreg for at zoome ud; eller på de grønne pile for tilstødende kort.


METAR-TAF: